createdAt,value
2022-08-11T00:01:06.740Z,57.07
2022-08-11T00:07:12.084Z,57.57
2022-08-11T00:13:16.819Z,57.53
2022-08-11T00:20:13.012Z,57.41
2022-08-11T00:25:52.022Z,57.23
2022-08-11T00:31:57.930Z,56.89
2022-08-11T00:38:02.473Z,56.28
2022-08-11T00:44:21.934Z,55.98
2022-08-11T00:50:31.374Z,55.63
2022-08-11T00:57:37.307Z,55.74
2022-08-11T01:04:11.796Z,55.61
2022-08-11T01:10:54.202Z,55.60
2022-08-11T01:17:47.781Z,56.19
2022-08-11T01:24:29.795Z,56.26
2022-08-11T01:31:11.252Z,56.04
2022-08-11T01:37:37.526Z,56.50
2022-08-11T01:44:40.167Z,56.44
2022-08-11T01:51:17.022Z,100.00
2022-08-11T01:57:37.322Z,100.00
2022-08-11T02:03:49.221Z,100.00
2022-08-11T02:10:25.083Z,100.00
2022-08-11T02:16:51.281Z,100.00
2022-08-11T02:24:03.950Z,100.00
2022-08-11T02:29:52.866Z,100.00
2022-08-11T02:36:04.583Z,100.00
2022-08-11T02:42:35.552Z,100.00
2022-08-11T02:49:08.657Z,100.00
2022-08-11T02:55:48.859Z,100.00
2022-08-11T03:01:53.230Z,100.00
2022-08-11T03:08:46.070Z,100.00
2022-08-11T03:15:14.415Z,100.00
2022-08-11T03:21:24.368Z,100.00
2022-08-11T03:27:55.317Z,100.00
2022-08-11T03:34:07.869Z,100.00
2022-08-11T03:40:40.878Z,100.00
2022-08-11T03:47:02.949Z,100.00
2022-08-11T03:53:20.228Z,100.00
2022-08-11T03:59:59.805Z,100.00
2022-08-11T04:06:51.370Z,100.00
2022-08-11T04:13:16.307Z,100.00
2022-08-11T04:19:56.093Z,100.00
2022-08-11T04:26:37.379Z,100.00
2022-08-11T04:33:36.569Z,100.00
2022-08-11T04:40:04.643Z,100.00
2022-08-11T04:46:21.854Z,100.00
2022-08-11T04:53:11.521Z,60.17
2022-08-11T05:00:07.726Z,60.33
2022-08-11T05:06:58.685Z,60.11
2022-08-11T05:13:20.635Z,58.90
2022-08-11T05:19:41.964Z,59.35
2022-08-11T05:26:46.735Z,59.86
2022-08-11T05:32:55.914Z,59.56
2022-08-11T05:39:36.303Z,59.70
2022-08-11T05:46:03.795Z,59.68
2022-08-11T05:52:34.325Z,60.05
2022-08-11T05:58:47.921Z,59.06
2022-08-11T06:04:58.345Z,59.02
2022-08-11T06:11:05.789Z,59.54
2022-08-11T06:17:09.999Z,59.25
2022-08-11T06:23:15.152Z,59.93
2022-08-11T06:29:20.535Z,59.93
2022-08-11T06:35:49.620Z,59.22
2022-08-11T06:41:57.532Z,59.20
2022-08-11T06:48:03.337Z,58.84
2022-08-11T06:54:07.531Z,59.17
2022-08-11T07:00:32.869Z,58.97
2022-08-11T07:07:15.491Z,58.50
2022-08-11T07:13:52.102Z,58.97
2022-08-11T07:20:16.356Z,58.41
2022-08-11T07:26:42.672Z,58.31
2022-08-11T07:32:52.059Z,58.01
2022-08-11T07:38:57.186Z,58.18
2022-08-11T07:45:21.185Z,57.80
2022-08-11T07:51:42.465Z,58.13
2022-08-11T07:58:16.224Z,60.05
2022-08-11T08:04:46.816Z,59.19
2022-08-11T08:11:08.275Z,59.63
2022-08-11T08:17:29.411Z,59.56
2022-08-11T08:23:34.591Z,59.70
2022-08-11T08:29:56.867Z,59.77
2022-08-11T08:36:12.927Z,60.46
2022-08-11T08:42:22.391Z,59.31
2022-08-11T08:48:28.259Z,60.31
2022-08-11T08:54:35.626Z,60.15
2022-08-11T09:00:46.721Z,59.83
2022-08-11T09:06:52.471Z,59.42
2022-08-11T09:12:57.516Z,59.56
2022-08-11T09:19:03.955Z,59.68
2022-08-11T09:25:25.873Z,59.79
2022-08-11T09:31:38.720Z,60.82
2022-08-11T09:38:03.106Z,60.37
2022-08-11T09:44:24.874Z,61.23
2022-08-11T09:50:29.236Z,60.94
2022-08-11T09:56:54.414Z,60.71
2022-08-11T10:02:58.945Z,61.38
2022-08-11T10:09:05.341Z,60.89
2022-08-11T10:15:29.554Z,61.28
2022-08-11T10:21:39.792Z,61.23
2022-08-11T10:28:32.938Z,62.52
2022-08-11T10:34:11.916Z,62.37
2022-08-11T10:40:19.343Z,62.95
2022-08-11T10:46:49.742Z,61.92
2022-08-11T10:53:13.290Z,62.46
2022-08-11T10:59:18.184Z,62.09
2022-08-11T11:05:27.986Z,61.43
2022-08-11T11:11:55.317Z,61.60
2022-08-11T11:18:04.808Z,61.46
2022-08-11T11:24:22.828Z,61.85
2022-08-11T11:30:38.345Z,61.30
2022-08-11T11:36:48.846Z,61.57
2022-08-11T11:42:55.027Z,61.58
2022-08-11T11:49:07.256Z,62.16
2022-08-11T12:01:31.694Z,60.68
2022-08-11T12:08:04.846Z,60.62
2022-08-11T12:14:19.996Z,60.68
2022-08-11T12:20:31.760Z,60.02
2022-08-11T12:27:16.715Z,59.47
2022-08-11T12:33:24.115Z,59.04
2022-08-11T12:40:10.715Z,58.49
2022-08-11T12:46:23.590Z,58.53
2022-08-11T12:52:31.142Z,58.14
2022-08-11T12:58:34.942Z,57.19
2022-08-11T13:04:59.467Z,56.80
2022-08-11T13:11:21.294Z,56.41
2022-08-11T13:17:40.287Z,55.69
2022-08-11T13:23:59.403Z,55.01
2022-08-11T13:30:43.083Z,53.91
2022-08-11T13:36:52.944Z,54.24
2022-08-11T13:42:59.288Z,53.64
2022-08-11T13:49:06.167Z,53.23
2022-08-11T13:55:51.629Z,53.35
2022-08-11T14:02:22.681Z,53.17
2022-08-11T14:08:37.292Z,52.24
2022-08-11T14:14:44.807Z,51.52
2022-08-11T14:21:11.931Z,52.31
2022-08-11T14:28:16.067Z,51.77
2022-08-11T14:33:58.573Z,51.46
2022-08-11T14:40:31.837Z,50.23
2022-08-11T14:46:55.705Z,50.71
2022-08-11T14:53:04.921Z,51.33
2022-08-11T14:59:11.121Z,51.34
2022-08-11T15:05:15.762Z,51.33
2022-08-11T15:11:39.222Z,51.26
2022-08-11T15:17:45.656Z,52.18
2022-08-11T15:24:08.999Z,52.18
2022-08-11T15:30:33.092Z,52.16
2022-08-11T15:36:57.884Z,52.09
2022-08-11T15:43:28.431Z,51.93
2022-08-11T15:50:12.077Z,52.00
2022-08-11T15:56:02.194Z,52.14
2022-08-11T16:02:26.247Z,52.47
2022-08-11T16:08:33.266Z,54.31
2022-08-11T16:14:59.634Z,53.09
2022-08-11T16:21:03.425Z,53.66
2022-08-11T16:27:13.986Z,54.75
2022-08-11T16:33:50.357Z,55.07
2022-08-11T16:39:50.199Z,55.25
2022-08-11T16:46:14.244Z,55.02
2022-08-11T16:52:19.586Z,54.91
2022-08-11T16:58:42.684Z,53.50
2022-08-11T17:05:10.336Z,52.60
2022-08-11T17:11:34.049Z,52.73
2022-08-11T17:17:38.648Z,52.06
2022-08-11T17:23:55.221Z,52.04
2022-08-11T17:30:03.456Z,52.10
2022-08-11T17:36:09.151Z,51.47
2022-08-11T17:42:30.920Z,51.25
2022-08-11T17:48:47.308Z,51.82
2022-08-11T17:55:10.495Z,50.66
2022-08-11T18:01:19.405Z,49.94
2022-08-11T18:07:42.905Z,51.69
2022-08-11T18:14:07.038Z,53.23
2022-08-11T18:20:28.840Z,54.54
2022-08-11T18:26:51.859Z,54.82
2022-08-11T18:33:45.126Z,56.47
2022-08-11T18:40:03.930Z,57.37
2022-08-11T18:46:29.123Z,57.07
2022-08-11T18:52:53.066Z,57.69
2022-08-11T18:59:16.130Z,57.82
2022-08-11T19:06:36.107Z,57.68
2022-08-11T19:12:25.143Z,57.81
2022-08-11T19:18:48.124Z,58.60
2022-08-11T19:25:14.312Z,58.68
2022-08-11T19:31:44.370Z,100.00
2022-08-11T19:38:10.583Z,100.00
2022-08-11T19:44:41.405Z,100.00
2022-08-11T19:51:04.043Z,100.00
2022-08-11T19:57:31.686Z,100.00
2022-08-11T20:03:55.700Z,100.00
2022-08-11T20:10:23.666Z,100.00
2022-08-11T20:16:46.959Z,100.00
2022-08-11T20:23:11.503Z,100.00
2022-08-11T20:29:32.850Z,100.00
2022-08-11T20:35:54.858Z,100.00
2022-08-11T20:42:17.878Z,100.00
2022-08-11T20:48:41.584Z,100.00
2022-08-11T20:55:03.617Z,100.00
2022-08-11T21:01:38.752Z,100.00
2022-08-11T21:08:08.058Z,100.00
2022-08-11T21:14:31.548Z,100.00
2022-08-11T21:20:58.802Z,100.00
2022-08-11T21:27:25.068Z,100.00
2022-08-11T21:33:47.476Z,100.00
2022-08-11T21:40:16.322Z,100.00
2022-08-11T21:46:40.845Z,100.00
2022-08-11T21:53:02.354Z,100.00
2022-08-11T21:59:25.287Z,100.00
2022-08-11T22:05:48.218Z,100.00
2022-08-11T22:12:34.082Z,100.00
2022-08-11T22:18:53.939Z,100.00
2022-08-11T22:25:18.642Z,100.00
2022-08-11T22:31:40.878Z,100.00
2022-08-11T22:38:05.390Z,100.00
2022-08-11T22:44:26.637Z,100.00
2022-08-11T22:50:47.974Z,100.00
2022-08-11T22:57:10.487Z,100.00
2022-08-11T23:03:37.842Z,100.00
2022-08-11T23:09:59.773Z,100.00
2022-08-11T23:16:22.664Z,100.00
2022-08-11T23:22:50.017Z,100.00
2022-08-11T23:29:12.889Z,100.00
2022-08-11T23:35:54.036Z,100.00
2022-08-11T23:42:19.213Z,100.00
2022-08-11T23:48:43.791Z,100.00
2022-08-11T23:55:06.786Z,100.00
